sensor_id;sensor_type;location;lat;lon;timestamp;pressure;altitude;pressure_sealevel;temperature;humidity
13314;BME280;6725;48.112;11.604;2023-04-10T00:01:00;95626.72;;;3.10;100.00
13314;BME280;6725;48.112;11.604;2023-04-10T00:03:26;95634.28;;;3.05;100.00
13314;BME280;6725;48.112;11.604;2023-04-10T00:05:52;95628.03;;;3.01;100.00
13314;BME280;6725;48.112;11.604;2023-04-10T00:08:22;95618.72;;;2.98;100.00
13314;BME280;6725;48.112;11.604;2023-04-10T00:10:47;95618.72;;;2.98;100.00
13314;BME280;6725;48.112;11.604;2023-04-10T00:13:14;95609.50;;;2.99;100.00
13314;BME280;6725;48.112;11.604;2023-04-10T00:15:39;95600.19;;;2.97;100.00
13314;BME280;6725;48.112;11.604;2023-04-10T00:18:05;95596.44;;;3.01;100.00
13314;BME280;6725;48.112;11.604;2023-04-10T00:20:30;95594.16;;;3.03;100.00
13314;BME280;6725;48.112;11.604;2023-04-10T00:22:55;95609.59;;;3.03;100.00
13314;BME280;6725;48.112;11.604;2023-04-10T00:25:21;95611.06;;;3.00;100.00
13314;BME280;6725;48.112;11.604;2023-04-10T00:27:47;95595.59;;;2.97;100.00
13314;BME280;6725;48.112;11.604;2023-04-10T00:30:13;95601.69;;;2.94;100.00
13314;BME280;6725;48.112;11.604;2023-04-10T00:32:38;95600.13;;;2.93;100.00
13314;BME280;6725;48.112;11.604;2023-04-10T00:35:04;95609.16;;;2.85;100.00
13314;BME280;6725;48.112;11.604;2023-04-10T00:37:29;95609.41;;;2.80;100.00
13314;BME280;6725;48.112;11.604;2023-04-10T00:39:54;95605.06;;;2.76;100.00
13314;BME280;6725;48.112;11.604;2023-04-10T00:42:20;95604.81;;;2.65;100.00
13314;BME280;6725;48.112;11.604;2023-04-10T00:44:45;95596.19;;;2.60;100.00
13314;BME280;6725;48.112;11.604;2023-04-10T00:47:12;95591.41;;;2.53;100.00
13314;BME280;6725;48.112;11.604;2023-04-10T00:49:38;95590.56;;;2.49;100.00
13314;BME280;6725;48.112;11.604;2023-04-10T00:52:04;95584.25;;;2.45;100.00
13314;BME280;6725;48.112;11.604;2023-04-10T00:54:30;95571.75;;;2.37;100.00
13314;BME280;6725;48.112;11.604;2023-04-10T00:56:57;95555.69;;;2.41;100.00
13314;BME280;6725;48.112;11.604;2023-04-10T00:59:22;95555.16;;;2.35;100.00
13314;BME280;6725;48.112;11.604;2023-04-10T01:01:48;95546.22;;;2.31;100.00
13314;BME280;6725;48.112;11.604;2023-04-10T01:04:13;95541.50;;;2.28;100.00
13314;BME280;6725;48.112;11.604;2023-04-10T01:07:16;95538.38;;;2.26;100.00
13314;BME280;6725;48.112;11.604;2023-04-10T01:09:52;95528.72;;;2.25;100.00
13314;BME280;6725;48.112;11.604;2023-04-10T01:15:16;95504.13;;;2.11;100.00
13314;BME280;6725;48.112;11.604;2023-04-10T01:17:56;95492.94;;;2.09;100.00
13314;BME280;6725;48.112;11.604;2023-04-10T01:20:25;95484.88;;;2.09;100.00
13314;BME280;6725;48.112;11.604;2023-04-10T01:26:05;95490.06;;;2.02;100.00
13314;BME280;6725;48.112;11.604;2023-04-10T01:28:55;95482.22;;;1.97;100.00
13314;BME280;6725;48.112;11.604;2023-04-10T01:31:37;95468.16;;;1.88;100.00
13314;BME280;6725;48.112;11.604;2023-04-10T01:34:10;95443.50;;;1.86;100.00
13314;BME280;6725;48.112;11.604;2023-04-10T01:36:52;95372.41;;;1.87;100.00
13314;BME280;6725;48.112;11.604;2023-04-10T01:39:19;95354.25;;;1.84;100.00
13314;BME280;6725;48.112;11.604;2023-04-10T01:41:47;95338.97;;;1.88;100.00
13314;BME280;6725;48.112;11.604;2023-04-10T01:44:14;95322.38;;;1.86;100.00
13314;BME280;6725;48.112;11.604;2023-04-10T01:46:43;95312.72;;;1.85;100.00
13314;BME280;6725;48.112;11.604;2023-04-10T01:49:10;95295.03;;;1.84;100.00
13314;BME280;6725;48.112;11.604;2023-04-10T01:51:36;95285.81;;;1.85;100.00
13314;BME280;6725;48.112;11.604;2023-04-10T01:54:03;95273.75;;;1.79;100.00
13314;BME280;6725;48.112;11.604;2023-04-10T01:56:29;95250.66;;;1.78;100.00
13314;BME280;6725;48.112;11.604;2023-04-10T01:58:57;95235.66;;;1.77;100.00
13314;BME280;6725;48.112;11.604;2023-04-10T02:01:22;95254.06;;;1.75;100.00
13314;BME280;6725;48.112;11.604;2023-04-10T02:03:47;95255.63;;;1.76;100.00
13314;BME280;6725;48.112;11.604;2023-04-10T02:09:44;95237.91;;;1.75;100.00
13314;BME280;6725;48.112;11.604;2023-04-10T02:12:09;95218.66;;;1.73;100.00
13314;BME280;6725;48.112;11.604;2023-04-10T02:14:44;95214.75;;;1.71;100.00
13314;BME280;6725;48.112;11.604;2023-04-10T02:17:13;95207.91;;;1.73;100.00
13314;BME280;6725;48.112;11.604;2023-04-10T02:19:40;95197.88;;;1.74;100.00
13314;BME280;6725;48.112;11.604;2023-04-10T02:22:07;95199.38;;;1.71;100.00
13314;BME280;6725;48.112;11.604;2023-04-10T02:24:33;95184.03;;;1.72;100.00
13314;BME280;6725;48.112;11.604;2023-04-10T02:26:59;95173.31;;;1.75;100.00
13314;BME280;6725;48.112;11.604;2023-04-10T02:29:25;95177.84;;;1.71;100.00
13314;BME280;6725;48.112;11.604;2023-04-10T02:31:51;95175.44;;;1.66;100.00
13314;BME280;6725;48.112;11.604;2023-04-10T02:34:16;95179.00;;;1.70;100.00
13314;BME280;6725;48.112;11.604;2023-04-10T02:36:41;95172.31;;;1.64;100.00
13314;BME280;6725;48.112;11.604;2023-04-10T02:39:07;95175.28;;;1.59;100.00
13314;BME280;6725;48.112;11.604;2023-04-10T02:41:32;95176.00;;;1.56;100.00
13314;BME280;6725;48.112;11.604;2023-04-10T02:43:58;95174.44;;;1.55;100.00
13314;BME280;6725;48.112;11.604;2023-04-10T02:46:23;95167.75;;;1.49;100.00
13314;BME280;6725;48.112;11.604;2023-04-10T02:48:50;95167.75;;;1.49;100.00
13314;BME280;6725;48.112;11.604;2023-04-10T02:51:16;95163.53;;;1.48;100.00
13314;BME280;6725;48.112;11.604;2023-04-10T02:53:42;95163.53;;;1.48;100.00
13314;BME280;6725;48.112;11.604;2023-04-10T02:56:07;95157.97;;;1.41;100.00
13314;BME280;6725;48.112;11.604;2023-04-10T02:58:33;95157.91;;;1.38;100.00
13314;BME280;6725;48.112;11.604;2023-04-10T03:01:00;95158.25;;;1.36;100.00
13314;BME280;6725;48.112;11.604;2023-04-10T03:03:25;95149.41;;;1.36;100.00
13314;BME280;6725;48.112;11.604;2023-04-10T03:05:52;95141.53;;;1.27;100.00
13314;BME280;6725;48.112;11.604;2023-04-10T03:08:17;95147.59;;;1.24;100.00
13314;BME280;6725;48.112;11.604;2023-04-10T03:10:44;95132.94;;;1.22;100.00
13314;BME280;6725;48.112;11.604;2023-04-10T03:13:09;95127.41;;;1.15;100.00
13314;BME280;6725;48.112;11.604;2023-04-10T03:15:35;95123.63;;;1.16;100.00
13314;BME280;6725;48.112;11.604;2023-04-10T03:18:00;95114.31;;;1.13;100.00
13314;BME280;6725;48.112;11.604;2023-04-10T03:20:26;95112.75;;;1.12;100.00
13314;BME280;6725;48.112;11.604;2023-04-10T03:22:51;95110.34;;;1.07;100.00
13314;BME280;6725;48.112;11.604;2023-04-10T03:25:17;95103.06;;;1.08;100.00
13314;BME280;6725;48.112;11.604;2023-04-10T03:27:42;95085.03;;;1.08;100.00
13314;BME280;6725;48.112;11.604;2023-04-10T03:30:08;95103.69;;;1.01;100.00
13314;BME280;6725;48.112;11.604;2023-04-10T03:32:33;95086.06;;;1.04;100.00
13314;BME280;6725;48.112;11.604;2023-04-10T03:34:58;95081.81;;;1.03;100.00
13314;BME280;6725;48.112;11.604;2023-04-10T03:37:24;95070.22;;;0.99;100.00
13314;BME280;6725;48.112;11.604;2023-04-10T03:39:51;95061.81;;;1.00;100.00
13314;BME280;6725;48.112;11.604;2023-04-10T03:42:17;95059.53;;;1.02;100.00
13314;BME280;6725;48.112;11.604;2023-04-10T03:44:42;95071.00;;;0.99;100.00
13314;BME280;6725;48.112;11.604;2023-04-10T03:47:07;95066.50;;;1.03;100.00
13314;BME280;6725;48.112;11.604;2023-04-10T03:49:33;95070.28;;;1.02;100.00
13314;BME280;6725;48.112;11.604;2023-04-10T03:51:58;95067.88;;;0.97;100.00
13314;BME280;6725;48.112;11.604;2023-04-10T03:54:23;95059.47;;;0.99;100.00
13314;BME280;6725;48.112;11.604;2023-04-10T03:56:49;95058.78;;;1.02;100.00
13314;BME280;6725;48.112;11.604;2023-04-10T03:59:14;95060.25;;;0.99;100.00
13314;BME280;6725;48.112;11.604;2023-04-10T04:01:40;95060.97;;;0.96;100.00
13314;BME280;6725;48.112;11.604;2023-04-10T04:04:05;95060.59;;;0.98;100.00
13314;BME280;6725;48.112;11.604;2023-04-10T04:06:31;95063.19;;;0.94;100.00
13314;BME280;6725;48.112;11.604;2023-04-10T04:08:56;95058.97;;;0.93;100.00
13314;BME280;6725;48.112;11.604;2023-04-10T04:11:21;95052.44;;;0.94;100.00
13314;BME280;6725;48.112;11.604;2023-04-10T04:13:47;95045.88;;;0.92;100.00
13314;BME280;6725;48.112;11.604;2023-04-10T04:16:12;95048.50;;;0.88;100.00
13314;BME280;6725;48.112;11.604;2023-04-10T04:18:38;95033.91;;;0.89;100.00
13314;BME280;6725;48.112;11.604;2023-04-10T04:21:03;95037.75;;;0.88;100.00
13314;BME280;6725;48.112;11.604;2023-04-10T04:23:29;95030.09;;;0.90;100.00
13314;BME280;6725;48.112;11.604;2023-04-10T04:25:55;95024.03;;;0.93;100.00
13314;BME280;6725;48.112;11.604;2023-04-10T04:28:22;95021.06;;;0.98;100.00
13314;BME280;6725;48.112;11.604;2023-04-10T04:30:47;95007.22;;;0.96;100.00
13314;BME280;6725;48.112;11.604;2023-04-10T04:33:12;95006.41;;;0.96;100.00
13314;BME280;6725;48.112;11.604;2023-04-10T04:35:38;95008.31;;;0.95;100.00
13314;BME280;6725;48.112;11.604;2023-04-10T04:38:03;95003.66;;;0.92;100.00
13314;BME280;6725;48.112;11.604;2023-04-10T04:40:28;95004.09;;;0.94;100.00
13314;BME280;6725;48.112;11.604;2023-04-10T04:42:54;95002.00;;;1.03;100.00
13314;BME280;6725;48.112;11.604;2023-04-10T04:45:19;95000.34;;;1.18;100.00
13314;BME280;6725;48.112;11.604;2023-04-10T04:47:46;94990.25;;;1.30;100.00
13314;BME280;6725;48.112;11.604;2023-04-10T04:50:11;94987.41;;;1.61;100.00
13314;BME280;6725;48.112;11.604;2023-04-10T04:52:36;94983.41;;;1.74;100.00
13314;BME280;6725;48.112;11.604;2023-04-10T04:55:02;94989.00;;;2.07;100.00
13314;BME280;6725;48.112;11.604;2023-04-10T04:57:27;94996.84;;;2.38;100.00
13314;BME280;6725;48.112;11.604;2023-04-10T04:59:53;95015.41;;;2.69;100.00
13314;BME280;6725;48.112;11.604;2023-04-10T05:02:18;95050.44;;;2.95;100.00
13314;BME280;6725;48.112;11.604;2023-04-10T05:04:46;95073.00;;;3.36;100.00
13314;BME280;6725;48.112;11.604;2023-04-10T05:07:11;95140.72;;;3.53;100.00
13314;BME280;6725;48.112;11.604;2023-04-10T05:09:37;95242.13;;;3.81;100.00
13314;BME280;6725;48.112;11.604;2023-04-10T05:12:02;95335.88;;;4.29;100.00
13314;BME280;6725;48.112;11.604;2023-04-10T05:14:28;95442.69;;;4.45;100.00
13314;BME280;6725;48.112;11.604;2023-04-10T05:16:53;95526.81;;;4.89;100.00
13314;BME280;6725;48.112;11.604;2023-04-10T05:19:19;95615.75;;;5.16;100.00
13314;BME280;6725;48.112;11.604;2023-04-10T05:21:44;95690.81;;;5.19;100.00
13314;BME280;6725;48.112;11.604;2023-04-10T05:24:10;95737.50;;;5.58;100.00
13314;BME280;6725;48.112;11.604;2023-04-10T05:26:35;95771.34;;;6.16;100.00
13314;BME280;6725;48.112;11.604;2023-04-10T05:29:00;95821.59;;;6.36;100.00
13314;BME280;6725;48.112;11.604;2023-04-10T05:31:26;95843.81;;;6.71;100.00
13314;BME280;6725;48.112;11.604;2023-04-10T05:33:51;95864.13;;;6.84;100.00
13314;BME280;6725;48.112;11.604;2023-04-10T05:36:16;95874.81;;;7.29;100.00
13314;BME280;6725;48.112;11.604;2023-04-10T05:38:42;95891.53;;;7.02;100.00
13314;BME280;6725;48.112;11.604;2023-04-10T05:41:08;95901.38;;;7.43;100.00
13314;BME280;6725;48.112;11.604;2023-04-10T05:43:33;95911.06;;;7.77;100.00
13314;BME280;6725;48.112;11.604;2023-04-10T05:45:58;95924.53;;;7.99;100.00
13314;BME280;6725;48.112;11.604;2023-04-10T05:48:24;95924.88;;;8.34;100.00
13314;BME280;6725;48.112;11.604;2023-04-10T05:50:50;95922.09;;;8.74;100.00
13314;BME280;6725;48.112;11.604;2023-04-10T05:53:18;95933.59;;;9.08;100.00
13314;BME280;6725;48.112;11.604;2023-04-10T05:55:43;95927.97;;;9.44;100.00
13314;BME280;6725;48.112;11.604;2023-04-10T05:58:09;95939.44;;;9.95;100.00
13314;BME280;6725;48.112;11.604;2023-04-10T06:00:34;95945.00;;;10.17;100.00
13314;BME280;6725;48.112;11.604;2023-04-10T06:03:01;95947.34;;;10.07;100.00
13314;BME280;6725;48.112;11.604;2023-04-10T06:05:27;95947.34;;;10.29;100.00
13314;BME280;6725;48.112;11.604;2023-04-10T06:07:52;95950.13;;;10.57;100.00
13314;BME280;6725;48.112;11.604;2023-04-10T06:10:18;95949.34;;;11.09;100.00
13314;BME280;6725;48.112;11.604;2023-04-10T06:12:43;95952.06;;;11.30;100.00
13314;BME280;6725;48.112;11.604;2023-04-10T06:15:09;95959.47;;;11.33;100.00
13314;BME280;6725;48.112;11.604;2023-04-10T06:17:40;95954.06;;;11.01;100.00
13314;BME280;6725;48.112;11.604;2023-04-10T06:20:07;95956.28;;;11.59;100.00
13314;BME280;6725;48.112;11.604;2023-04-10T06:22:32;95959.31;;;11.89;100.00
13314;BME280;6725;48.112;11.604;2023-04-10T06:24:58;95958.38;;;12.23;100.00
13314;BME280;6725;48.112;11.604;2023-04-10T06:27:23;95956.66;;;12.47;100.00
13314;BME280;6725;48.112;11.604;2023-04-10T06:29:49;95956.63;;;12.54;100.00
13314;BME280;6725;48.112;11.604;2023-04-10T06:32:14;95954.75;;;12.95;100.00
13314;BME280;6725;48.112;11.604;2023-04-10T06:34:40;95943.19;;;13.58;100.00
13314;BME280;6725;48.112;11.604;2023-04-10T06:37:05;95941.16;;;14.56;100.00
13314;BME280;6725;48.112;11.604;2023-04-10T06:39:30;95950.78;;;13.03;100.00
13314;BME280;6725;48.112;11.604;2023-04-10T06:41:56;95944.56;;;12.99;100.00
13314;BME280;6725;48.112;11.604;2023-04-10T06:44:21;95939.16;;;14.33;100.00
13314;BME280;6725;48.112;11.604;2023-04-10T06:46:47;95946.25;;;13.64;100.00
13314;BME280;6725;48.112;11.604;2023-04-10T06:49:12;95935.50;;;14.10;100.00
13314;BME280;6725;48.112;11.604;2023-04-10T06:51:38;95940.91;;;13.50;100.00
13314;BME280;6725;48.112;11.604;2023-04-10T06:54:03;95945.63;;;12.61;100.00
13314;BME280;6725;48.112;11.604;2023-04-10T06:56:28;95936.41;;;12.88;100.00
13314;BME280;6725;48.112;11.604;2023-04-10T06:58:54;95943.19;;;12.70;100.00
13314;BME280;6725;48.112;11.604;2023-04-10T07:01:20;95940.88;;;13.16;100.00
13314;BME280;6725;48.112;11.604;2023-04-10T07:03:45;95924.84;;;14.15;100.00
13314;BME280;6725;48.112;11.604;2023-04-10T07:06:11;95919.16;;;14.82;100.00
13314;BME280;6725;48.112;11.604;2023-04-10T07:08:36;95930.06;;;14.89;100.00
13314;BME280;6725;48.112;11.604;2023-04-10T07:11:02;95927.00;;;14.57;100.00
13314;BME280;6725;48.112;11.604;2023-04-10T07:13:27;95923.59;;;15.22;100.00
13314;BME280;6725;48.112;11.604;2023-04-10T07:15:53;95930.38;;;16.38;91.22
13314;BME280;6725;48.112;11.604;2023-04-10T07:18:18;95929.94;;;15.19;90.65
13314;BME280;6725;48.112;11.604;2023-04-10T07:20:44;95923.38;;;15.36;91.23
13314;BME280;6725;48.112;11.604;2023-04-10T07:23:09;95935.16;;;15.79;86.97
13314;BME280;6725;48.112;11.604;2023-04-10T07:25:35;95933.22;;;16.71;85.61
13314;BME280;6725;48.112;11.604;2023-04-10T07:28:00;95934.13;;;15.04;85.92
13314;BME280;6725;48.112;11.604;2023-04-10T07:30:25;95927.72;;;15.96;84.13
13314;BME280;6725;48.112;11.604;2023-04-10T07:32:51;95924.38;;;16.43;80.34
13314;BME280;6725;48.112;11.604;2023-04-10T07:35:16;95926.53;;;17.64;70.42
13314;BME280;6725;48.112;11.604;2023-04-10T07:37:42;95927.47;;;17.58;71.38
13314;BME280;6725;48.112;11.604;2023-04-10T07:40:09;95932.94;;;17.61;69.37
13314;BME280;6725;48.112;11.604;2023-04-10T07:42:35;95929.41;;;16.65;72.51
13314;BME280;6725;48.112;11.604;2023-04-10T07:45:01;95934.09;;;15.27;79.62
13314;BME280;6725;48.112;11.604;2023-04-10T07:47:26;95928.69;;;15.47;79.83
13314;BME280;6725;48.112;11.604;2023-04-10T07:49:52;95934.28;;;16.21;77.49
13314;BME280;6725;48.112;11.604;2023-04-10T07:52:17;95936.59;;;15.45;75.50
13314;BME280;6725;48.112;11.604;2023-04-10T07:54:43;95943.59;;;15.49;76.96
13314;BME280;6725;48.112;11.604;2023-04-10T07:57:08;95938.81;;;15.53;75.39
13314;BME280;6725;48.112;11.604;2023-04-10T07:59:33;95931.97;;;14.92;78.88
13314;BME280;6725;48.112;11.604;2023-04-10T08:01:59;95932.00;;;16.36;75.00
13314;BME280;6725;48.112;11.604;2023-04-10T08:04:25;95930.19;;;17.29;66.74
13314;BME280;6725;48.112;11.604;2023-04-10T08:06:54;95950.94;;;16.54;66.04
13314;BME280;6725;48.112;11.604;2023-04-10T08:09:20;95943.75;;;16.01;68.04
13314;BME280;6725;48.112;11.604;2023-04-10T08:11:45;95934.72;;;15.61;72.18
13314;BME280;6725;48.112;11.604;2023-04-10T08:14:10;95930.41;;;16.55;66.95
13314;BME280;6725;48.112;11.604;2023-04-10T08:16:37;95929.19;;;17.68;64.33
13314;BME280;6725;48.112;11.604;2023-04-10T08:19:03;95930.94;;;17.62;62.18
13314;BME280;6725;48.112;11.604;2023-04-10T08:21:30;95930.41;;;16.55;63.82
13314;BME280;6725;48.112;11.604;2023-04-10T08:24:00;95930.41;;;16.55;68.15
13314;BME280;6725;48.112;11.604;2023-04-10T08:26:27;95933.94;;;17.67;62.06
13314;BME280;6725;48.112;11.604;2023-04-10T08:28:54;95929.50;;;16.77;64.17
13314;BME280;6725;48.112;11.604;2023-04-10T08:31:21;95936.25;;;15.62;69.73
13314;BME280;6725;48.112;11.604;2023-04-10T08:33:47;95932.16;;;16.09;71.83
13314;BME280;6725;48.112;11.604;2023-04-10T08:36:13;95930.72;;;15.20;75.46
13314;BME280;6725;48.112;11.604;2023-04-10T08:38:43;95922.84;;;16.03;72.73
13314;BME280;6725;48.112;11.604;2023-04-10T08:41:15;95920.00;;;16.62;67.63
13314;BME280;6725;48.112;11.604;2023-04-10T08:43:41;95925.41;;;15.09;70.29
13314;BME280;6725;48.112;11.604;2023-04-10T08:46:08;95926.66;;;15.70;67.03
13314;BME280;6725;48.112;11.604;2023-04-10T08:49:03;95940.69;;;14.87;72.26
13314;BME280;6725;48.112;11.604;2023-04-10T08:51:38;95934.00;;;15.96;65.11
13314;BME280;6725;48.112;11.604;2023-04-10T08:54:12;95920.72;;;16.66;65.34
13314;BME280;6725;48.112;11.604;2023-04-10T08:56:40;95928.66;;;16.44;65.05
13314;BME280;6725;48.112;11.604;2023-04-10T08:59:07;95929.25;;;17.52;62.19
13314;BME280;6725;48.112;11.604;2023-04-10T09:01:33;95930.97;;;17.46;61.53
13314;BME280;6725;48.112;11.604;2023-04-10T09:04:00;95937.00;;;17.41;56.65
13314;BME280;6725;48.112;11.604;2023-04-10T09:06:26;95928.22;;;16.82;59.67
13314;BME280;6725;48.112;11.604;2023-04-10T09:08:51;95927.00;;;17.31;61.36
13314;BME280;6725;48.112;11.604;2023-04-10T09:11:22;95929.25;;;17.52;58.53
13314;BME280;6725;48.112;11.604;2023-04-10T09:13:48;95933.22;;;18.08;57.80
13314;BME280;6725;48.112;11.604;2023-04-10T09:16:13;95913.63;;;18.56;55.56
13314;BME280;6725;48.112;11.604;2023-04-10T09:18:44;95915.50;;;18.46;55.30
13314;BME280;6725;48.112;11.604;2023-04-10T09:21:12;95923.56;;;17.11;58.50
13314;BME280;6725;48.112;11.604;2023-04-10T09:23:38;95913.94;;;17.92;56.41
13314;BME280;6725;48.112;11.604;2023-04-10T09:26:27;95914.28;;;18.85;53.53
13314;BME280;6725;48.112;11.604;2023-04-10T09:29:02;95906.69;;;16.93;60.86
13314;BME280;6725;48.112;11.604;2023-04-10T09:31:38;95904.66;;;18.39;53.47
13314;BME280;6725;48.112;11.604;2023-04-10T09:34:13;95902.28;;;18.25;51.38
13314;BME280;6725;48.112;11.604;2023-04-10T09:36:43;95895.75;;;18.19;51.94
13314;BME280;6725;48.112;11.604;2023-04-10T09:39:10;95890.44;;;18.25;50.95
13314;BME280;6725;48.112;11.604;2023-04-10T09:41:50;95891.47;;;17.90;52.40
13314;BME280;6725;48.112;11.604;2023-04-10T09:44:18;95888.41;;;18.66;49.64
13314;BME280;6725;48.112;11.604;2023-04-10T09:46:52;95871.88;;;18.88;48.32
13314;BME280;6725;48.112;11.604;2023-04-10T09:49:17;95876.16;;;17.73;49.55
13314;BME280;6725;48.112;11.604;2023-04-10T09:51:43;95887.50;;;17.02;51.67
13314;BME280;6725;48.112;11.604;2023-04-10T09:54:09;95876.22;;;17.57;51.08
13314;BME280;6725;48.112;11.604;2023-04-10T09:56:35;95869.50;;;17.99;48.63
13314;BME280;6725;48.112;11.604;2023-04-10T09:59:02;95871.91;;;17.40;49.31
13314;BME280;6725;48.112;11.604;2023-04-10T10:01:32;95866.94;;;18.70;49.74
13314;BME280;6725;48.112;11.604;2023-04-10T10:04:03;95865.63;;;18.09;48.07
13314;BME280;6725;48.112;11.604;2023-04-10T10:06:32;95856.63;;;18.46;47.87
13314;BME280;6725;48.112;11.604;2023-04-10T10:09:02;95857.38;;;18.96;45.99
13314;BME280;6725;48.112;11.604;2023-04-10T10:11:32;95850.16;;;17.99;47.03
13314;BME280;6725;48.112;11.604;2023-04-10T10:13:59;95851.75;;;18.25;45.66
13314;BME280;6725;48.112;11.604;2023-04-10T10:16:36;95853.91;;;18.05;45.61
13314;BME280;6725;48.112;11.604;2023-04-10T10:19:39;95844.72;;;17.26;49.75
13314;BME280;6725;48.112;11.604;2023-04-10T10:22:07;95839.34;;;18.17;47.09
13314;BME280;6725;48.112;11.604;2023-04-10T10:24:35;95841.16;;;18.61;45.35
13314;BME280;6725;48.112;11.604;2023-04-10T10:27:03;95839.59;;;18.35;45.44
13314;BME280;6725;48.112;11.604;2023-04-10T10:29:33;95840.47;;;17.78;47.17
13314;BME280;6725;48.112;11.604;2023-04-10T10:32:01;95834.72;;;18.26;44.14
13314;BME280;6725;48.112;11.604;2023-04-10T10:34:28;95826.94;;;18.34;43.43
13314;BME280;6725;48.112;11.604;2023-04-10T10:36:53;95828.13;;;17.42;46.50
13314;BME280;6725;48.112;11.604;2023-04-10T10:39:31;95832.44;;;16.66;49.86
13314;BME280;6725;48.112;11.604;2023-04-10T10:44:47;95806.56;;;17.78;44.75
13314;BME280;6725;48.112;11.604;2023-04-10T10:49:53;95816.09;;;18.02;44.06
13314;BME280;6725;48.112;11.604;2023-04-10T10:52:42;95812.34;;;17.96;43.29
13314;BME280;6725;48.112;11.604;2023-04-10T10:57:50;95799.16;;;18.75;43.25
13314;BME280;6725;48.112;11.604;2023-04-10T11:00:17;95797.09;;;18.04;44.58
13314;BME280;6725;48.112;11.604;2023-04-10T11:02:43;95777.28;;;18.05;46.40
13314;BME280;6725;48.112;11.604;2023-04-10T11:05:08;95795.72;;;17.14;44.54
13314;BME280;6725;48.112;11.604;2023-04-10T11:13:26;95778.06;;;17.81;39.64
13314;BME280;6725;48.112;11.604;2023-04-10T11:15:53;95774.06;;;18.57;38.01
13314;BME280;6725;48.112;11.604;2023-04-10T11:21:18;95773.13;;;16.74;41.78
13314;BME280;6725;48.112;11.604;2023-04-10T11:24:05;95780.13;;;16.79;39.55
13314;BME280;6725;48.112;11.604;2023-04-10T11:32:00;95753.38;;;16.76;43.89
13314;BME280;6725;48.112;11.604;2023-04-10T11:34:26;95761.72;;;17.17;42.59
13314;BME280;6725;48.112;11.604;2023-04-10T11:36:52;95746.34;;;16.10;45.50
13314;BME280;6725;48.112;11.604;2023-04-10T11:39:19;95754.38;;;15.69;46.08
13314;BME280;6725;48.112;11.604;2023-04-10T11:41:51;95744.31;;;15.43;47.58
13314;BME280;6725;48.112;11.604;2023-04-10T11:46:47;95744.66;;;14.44;48.56
13314;BME280;6725;48.112;11.604;2023-04-10T11:51:46;95729.50;;;14.36;53.45
13314;BME280;6725;48.112;11.604;2023-04-10T11:54:13;95724.31;;;14.61;55.63
13314;BME280;6725;48.112;11.604;2023-04-10T11:56:41;95737.38;;;14.34;55.25
13314;BME280;6725;48.112;11.604;2023-04-10T11:59:07;95721.34;;;14.52;56.79
13314;BME280;6725;48.112;11.604;2023-04-10T12:01:40;95723.63;;;14.34;59.48
13314;BME280;6725;48.112;11.604;2023-04-10T12:04:19;95713.47;;;14.31;62.50
13314;BME280;6725;48.112;11.604;2023-04-10T12:06:50;95711.44;;;14.58;57.98
13314;BME280;6725;48.112;11.604;2023-04-10T12:09:17;95719.69;;;14.35;52.35
13314;BME280;6725;48.112;11.604;2023-04-10T12:11:51;95721.72;;;14.31;51.69
13314;BME280;6725;48.112;11.604;2023-04-10T12:14:19;95717.69;;;14.59;51.67
13314;BME280;6725;48.112;11.604;2023-04-10T12:16:45;95728.16;;;14.21;52.23
13314;BME280;6725;48.112;11.604;2023-04-10T12:19:12;95719.56;;;14.19;56.60
13314;BME280;6725;48.112;11.604;2023-04-10T12:21:38;95709.06;;;14.37;57.15
13314;BME280;6725;48.112;11.604;2023-04-10T12:24:06;95711.56;;;14.28;58.15
13314;BME280;6725;48.112;11.604;2023-04-10T12:26:31;95703.19;;;14.58;56.93
13314;BME280;6725;48.112;11.604;2023-04-10T12:28:57;95713.31;;;14.61;56.49
13314;BME280;6725;48.112;11.604;2023-04-10T12:31:40;95705.69;;;14.49;57.70
13314;BME280;6725;48.112;11.604;2023-04-10T12:34:06;95715.03;;;14.55;58.72
13314;BME280;6725;48.112;11.604;2023-04-10T12:36:32;95702.97;;;14.26;57.78
13314;BME280;6725;48.112;11.604;2023-04-10T12:39:00;95695.19;;;14.44;58.81
13314;BME280;6725;48.112;11.604;2023-04-10T12:41:29;95696.25;;;14.50;55.87
13314;BME280;6725;48.112;11.604;2023-04-10T12:44:15;95691.19;;;14.68;55.42
13314;BME280;6725;48.112;11.604;2023-04-10T12:46:41;95689.66;;;14.67;56.13
13314;BME280;6725;48.112;11.604;2023-04-10T12:49:11;95691.69;;;14.63;55.37
13314;BME280;6725;48.112;11.604;2023-04-10T12:51:55;95684.53;;;14.69;53.66
13314;BME280;6725;48.112;11.604;2023-04-10T12:54:33;95683.81;;;14.65;50.32
13314;BME280;6725;48.112;11.604;2023-04-10T12:57:00;95688.44;;;14.68;54.39
13314;BME280;6725;48.112;11.604;2023-04-10T12:59:27;95679.16;;;14.62;58.53
13314;BME280;6725;48.112;11.604;2023-04-10T13:01:53;95672.31;;;14.70;54.17
13314;BME280;6725;48.112;11.604;2023-04-10T13:04:19;95669.50;;;14.54;54.75
13314;BME280;6725;48.112;11.604;2023-04-10T13:06:45;95670.97;;;14.59;58.39
13314;BME280;6725;48.112;11.604;2023-04-10T13:09:12;95663.28;;;14.50;61.34
13314;BME280;6725;48.112;11.604;2023-04-10T13:11:38;95659.03;;;14.85;59.27
13314;BME280;6725;48.112;11.604;2023-04-10T13:14:04;95668.94;;;14.82;56.57
13314;BME280;6725;48.112;11.604;2023-04-10T13:16:29;95668.00;;;15.08;54.37
13314;BME280;6725;48.112;11.604;2023-04-10T13:18:55;95658.84;;;14.95;57.20
13314;BME280;6725;48.112;11.604;2023-04-10T13:21:20;95659.34;;;14.51;57.38
13314;BME280;6725;48.112;11.604;2023-04-10T13:23:50;95646.94;;;14.82;58.37
13314;BME280;6725;48.112;11.604;2023-04-10T13:26:15;95648.56;;;14.80;56.00
13314;BME280;6725;48.112;11.604;2023-04-10T13:28:40;95647.81;;;15.15;55.49
13314;BME280;6725;48.112;11.604;2023-04-10T13:31:06;95635.72;;;14.93;50.92
13314;BME280;6725;48.112;11.604;2023-04-10T13:33:31;95641.38;;;15.21;51.43
13314;BME280;6725;48.112;11.604;2023-04-10T13:35:57;95632.72;;;15.23;53.58
13314;BME280;6725;48.112;11.604;2023-04-10T13:38:22;95624.34;;;15.10;53.31